Time;durP1;ratioP1;P1;durP2;ratioP2;P2;SDS_P1;SDS_P2;PMS_P1;PMS_P2;Temp;Humidity;BMP_temperature;BMP_pressure;BME280_temperature;BME280_humidity;BME280_pressure;Samples;Min_cycle;Max_cycle;Signal;HPM_P1;HPM_P2
2022/10/10 00:00:48;;;;;;;6.13;4.40;;;13.10;99.90;;;;;;5115147;28;20187;-72
2022/10/10 00:03:14;;;;;;;8.00;4.43;;;13.10;99.90;;;;;;5116353;28;20284;-73
2022/10/10 00:05:40;;;;;;;6.87;4.40;;;13.10;99.90;;;;;;5116319;28;20194;-72
2022/10/10 00:08:06;;;;;;;5.77;4.70;;;13.10;99.90;;;;;;5115974;28;20649;-72
2022/10/10 00:10:33;;;;;;;8.30;3.90;;;13.00;99.90;;;;;;5116093;28;20183;-72
2022/10/10 00:12:59;;;;;;;10.63;4.93;;;13.00;99.90;;;;;;5116237;28;20166;-72
2022/10/10 00:15:25;;;;;;;10.57;5.03;;;13.00;99.90;;;;;;5116216;28;20167;-72
2022/10/10 00:17:50;;;;;;;10.97;5.40;;;13.00;99.90;;;;;;5115923;28;20242;-73
2022/10/10 00:20:18;;;;;;;9.70;5.13;;;13.10;99.90;;;;;;5116046;28;20195;-73
2022/10/10 00:22:44;;;;;;;11.50;5.40;;;13.00;99.90;;;;;;5115677;28;20163;-71
2022/10/10 00:25:10;;;;;;;12.93;6.03;;;13.00;99.90;;;;;;5115984;28;20658;-71
2022/10/10 00:27:37;;;;;;;14.17;5.80;;;13.00;99.90;;;;;;5115949;28;20182;-71
2022/10/10 00:30:05;;;;;;;11.07;5.40;;;13.00;99.90;;;;;;5115449;28;20283;-71
2022/10/10 00:32:31;;;;;;;8.50;5.23;;;13.00;99.90;;;;;;5115694;28;20260;-71
2022/10/10 00:34:57;;;;;;;10.27;6.00;;;13.00;99.90;;;;;;5115774;28;20170;-71
2022/10/10 00:37:22;;;;;;;9.33;5.57;;;12.90;99.90;;;;;;5115299;28;20550;-72
2022/10/10 00:39:48;;;;;;;10.07;5.93;;;12.80;99.90;;;;;;5115718;28;20634;-72
2022/10/10 00:42:16;;;;;;;9.17;5.53;;;12.80;99.90;;;;;;5097437;28;20172;-72
2022/10/10 00:44:44;;;;;;;11.70;6.23;;;12.80;99.90;;;;;;5115618;28;20163;-72
2022/10/10 00:47:10;;;;;;;13.00;6.23;;;12.70;99.90;;;;;;5115624;28;20250;-73
2022/10/10 00:49:40;;;;;;;7.97;5.23;;;12.60;99.90;;;;;;5115517;28;20195;-72
2022/10/10 00:52:08;;;;;;;9.30;5.23;;;12.60;99.90;;;;;;5115003;28;20167;-72
2022/10/10 00:54:36;;;;;;;11.33;6.17;;;12.50;99.90;;;;;;5115459;28;20217;-72
2022/10/10 00:57:09;;;;;;;9.50;5.60;;;12.50;99.90;;;;;;5097065;28;20179;-72
2022/10/10 00:59:37;;;;;;;11.27;5.73;;;12.50;99.90;;;;;;5115484;28;20163;-72
2022/10/10 01:02:04;;;;;;;12.73;5.70;;;12.50;99.90;;;;;;5115051;28;20529;-72
2022/10/10 01:04:43;;;;;;;11.13;5.57;;;12.50;99.90;;;;;;5115141;28;20175;-72
2022/10/10 01:07:25;;;;;;;10.80;5.23;;;12.40;99.90;;;;;;5114859;28;20225;-72
2022/10/10 01:09:52;;;;;;;10.50;5.00;;;12.50;99.90;;;;;;5115082;28;20268;-72
2022/10/10 01:12:26;;;;;;;8.00;4.70;;;12.40;99.90;;;;;;5114731;28;20166;-72
2022/10/10 01:14:51;;;;;;;7.60;4.97;;;12.40;99.90;;;;;;5114987;28;20254;-72
2022/10/10 01:17:21;;;;;;;7.93;4.77;;;12.30;99.90;;;;;;5115142;28;20247;-72
2022/10/10 01:20:14;;;;;;;8.83;5.03;;;12.30;99.90;;;;;;5114618;28;20176;-73
2022/10/10 01:22:57;;;;;;;6.40;4.57;;;12.40;99.90;;;;;;5114936;28;20230;-72
2022/10/10 01:25:38;;;;;;;8.90;4.33;;;12.40;99.90;;;;;;5114706;28;20253;-72
2022/10/10 01:28:18;;;;;;;6.57;4.13;;;12.50;99.90;;;;;;5114753;28;20194;-72
2022/10/10 01:30:45;;;;;;;8.70;5.13;;;12.50;99.90;;;;;;5096167;28;20337;-71
2022/10/10 01:33:15;;;;;;;8.90;4.50;;;12.50;99.90;;;;;;5114678;28;20163;-71
2022/10/10 01:35:49;;;;;;;7.17;4.53;;;12.50;99.90;;;;;;5114098;28;20183;-71
2022/10/10 01:38:49;;;;;;;7.20;5.00;;;12.50;99.90;;;;;;5114784;28;20167;-70
2022/10/10 01:41:18;;;;;;;7.33;4.50;;;12.60;99.90;;;;;;5114474;28;20171;-72
2022/10/10 01:43:44;;;;;;;7.77;4.23;;;12.60;99.90;;;;;;5114489;28;20163;-71
2022/10/10 01:46:17;;;;;;;5.87;4.80;;;12.60;99.90;;;;;;5114295;28;20171;-71
2022/10/10 01:48:46;;;;;;;8.53;4.27;;;12.70;99.90;;;;;;5114210;28;20218;-71
2022/10/10 01:51:24;;;;;;;4.90;3.87;;;12.60;99.90;;;;;;5114285;28;20163;-73
2022/10/10 01:54:02;;;;;;;6.67;4.27;;;12.60;99.90;;;;;;5114426;28;20167;-71
2022/10/10 01:56:31;;;;;;;9.07;4.67;;;12.60;99.90;;;;;;5114183;28;20711;-72
2022/10/10 01:58:59;;;;;;;5.80;4.13;;;12.60;99.90;;;;;;5114319;28;20631;-70
2022/10/10 02:01:52;;;;;;;6.30;4.50;;;12.60;99.90;;;;;;5114098;28;20168;-71
2022/10/10 02:04:46;;;;;;;7.90;4.47;;;12.60;99.90;;;;;;5095656;28;20285;-71
2022/10/10 02:07:22;;;;;;;5.97;3.93;;;12.60;99.90;;;;;;5113921;28;20175;-70
2022/10/10 02:09:51;;;;;;;7.80;4.10;;;12.60;99.90;;;;;;5114059;28;20287;-71
2022/10/10 02:12:19;;;;;;;7.00;4.23;;;12.60;99.90;;;;;;5095755;28;20532;-71
2022/10/10 02:14:49;;;;;;;6.20;4.00;;;12.60;99.90;;;;;;5114131;28;20172;-71
2022/10/10 02:17:16;;;;;;;5.47;3.93;;;12.60;99.90;;;;;;5114015;28;20164;-71
2022/10/10 02:20:05;;;;;;;6.70;4.30;;;12.60;99.90;;;;;;5113547;28;20282;-72
2022/10/10 02:22:31;;;;;;;7.23;4.30;;;12.60;99.90;;;;;;5113885;28;20611;-71
2022/10/10 02:24:57;;;;;;;6.63;3.80;;;12.60;99.90;;;;;;5094938;28;20619;-70
2022/10/10 02:27:34;;;;;;;5.73;4.03;;;12.60;99.90;;;;;;5113919;28;20174;-70
2022/10/10 02:30:02;;;;;;;5.63;4.03;;;12.60;99.90;;;;;;5113335;28;20246;-72
2022/10/10 02:32:35;;;;;;;5.80;4.33;;;12.60;99.90;;;;;;5113364;28;20170;-70
2022/10/10 02:35:11;;;;;;;4.70;3.80;;;12.60;99.90;;;;;;5113859;28;20171;-71
2022/10/10 02:37:38;;;;;;;5.57;4.30;;;12.60;99.90;;;;;;5095436;28;20194;-71
2022/10/10 02:40:07;;;;;;;6.43;4.00;;;12.60;99.90;;;;;;5113707;28;20166;-71
2022/10/10 02:42:34;;;;;;;8.00;4.20;;;12.60;99.90;;;;;;5113398;28;20163;-71
2022/10/10 02:45:00;;;;;;;7.40;4.30;;;12.60;99.90;;;;;;5113651;28;20171;-71
2022/10/10 02:47:26;;;;;;;8.90;4.30;;;12.60;99.90;;;;;;5113494;28;20635;-71
2022/10/10 02:49:51;;;;;;;5.53;3.93;;;12.60;99.90;;;;;;5113380;28;20206;-72
2022/10/10 02:52:17;;;;;;;10.47;4.27;;;12.60;99.90;;;;;;5113542;28;20178;-71
2022/10/10 02:54:43;;;;;;;4.13;3.73;;;12.60;99.90;;;;;;5113291;28;20175;-71
2022/10/10 02:57:08;;;;;;;5.33;3.93;;;12.60;99.90;;;;;;5113318;28;20509;-71
2022/10/10 02:59:34;;;;;;;6.07;3.83;;;12.60;99.90;;;;;;5113508;28;20622;-71
2022/10/10 03:02:00;;;;;;;9.13;3.90;;;12.60;99.90;;;;;;5112680;28;20639;-71
2022/10/10 03:04:25;;;;;;;5.03;3.93;;;12.60;99.90;;;;;;5113700;28;20167;-72
2022/10/10 03:06:52;;;;;;;5.43;3.77;;;12.60;99.90;;;;;;5095068;28;20171;-73
2022/10/10 03:09:18;;;;;;;5.10;3.90;;;12.60;99.90;;;;;;5113447;28;20195;-72
2022/10/10 03:11:43;;;;;;;7.43;4.00;;;12.60;99.90;;;;;;5113257;28;20613;-72
2022/10/10 03:14:09;;;;;;;5.63;3.70;;;12.60;99.90;;;;;;5113270;28;20236;-72
2022/10/10 03:16:34;;;;;;;5.93;4.17;;;12.60;99.90;;;;;;5094622;28;20171;-72
2022/10/10 03:19:01;;;;;;;13.33;4.03;;;12.60;99.90;;;;;;5112967;28;20175;-72
2022/10/10 03:21:27;;;;;;;6.37;3.83;;;12.60;99.90;;;;;;5095187;28;20167;-72
2022/10/10 03:23:53;;;;;;;6.97;4.10;;;12.60;99.90;;;;;;5113285;28;20174;-72
2022/10/10 03:26:18;;;;;;;9.07;4.10;;;12.60;99.90;;;;;;5112944;28;20622;-71
2022/10/10 03:28:44;;;;;;;6.67;4.07;;;12.60;99.90;;;;;;5113045;28;20203;-73
2022/10/10 03:31:10;;;;;;;4.80;3.83;;;12.60;99.90;;;;;;5112216;28;20223;-70
2022/10/10 03:33:35;;;;;;;4.10;3.73;;;12.60;99.90;;;;;;5113027;28;20167;-71
2022/10/10 03:36:01;;;;;;;9.33;3.90;;;12.60;99.90;;;;;;5115351;28;20191;-73
2022/10/10 03:38:27;;;;;;;7.27;3.90;;;12.60;99.90;;;;;;5116852;28;20168;-72
2022/10/10 03:40:52;;;;;;;7.00;3.90;;;12.60;99.90;;;;;;5116573;28;20523;-72
2022/10/10 03:43:18;;;;;;;6.80;3.73;;;12.60;99.90;;;;;;5116457;28;20246;-72
2022/10/10 03:45:46;;;;;;;9.23;3.90;;;12.60;99.90;;;;;;5116251;28;20179;-72
2022/10/10 03:48:12;;;;;;;7.17;4.20;;;12.50;99.90;;;;;;5116419;28;20167;-72
2022/10/10 03:50:38;;;;;;;6.03;4.20;;;12.60;99.90;;;;;;5116281;28;20214;-71
2022/10/10 03:53:04;;;;;;;8.93;4.00;;;12.60;99.90;;;;;;5116181;28;20577;-71
2022/10/10 03:55:30;;;;;;;8.50;4.70;;;12.50;99.90;;;;;;5116128;28;20639;-72
2022/10/10 03:57:56;;;;;;;5.17;3.83;;;12.60;99.90;;;;;;5116444;28;20217;-72
2022/10/10 04:00:22;;;;;;;6.10;3.97;;;12.50;99.90;;;;;;5115649;28;20175;-72
2022/10/10 04:02:47;;;;;;;4.83;4.03;;;12.50;99.90;;;;;;5116283;28;20538;-71
2022/10/10 04:05:13;;;;;;;9.23;4.50;;;12.50;99.90;;;;;;5115478;28;20174;-72
2022/10/10 04:07:40;;;;;;;8.07;4.30;;;12.50;99.90;;;;;;5116043;28;20619;-72
2022/10/10 04:10:07;;;;;;;5.83;3.93;;;12.50;99.90;;;;;;5115520;28;20199;-71
2022/10/10 04:12:32;;;;;;;6.67;4.00;;;12.50;99.90;;;;;;5115618;28;20190;-73
2022/10/10 04:14:58;;;;;;;7.70;4.20;;;12.40;99.90;;;;;;5115694;28;20238;-72
2022/10/10 04:17:24;;;;;;;6.23;4.00;;;12.50;99.90;;;;;;5115970;28;20627;-71
2022/10/10 04:19:50;;;;;;;7.03;4.10;;;12.40;99.90;;;;;;5115932;28;20196;-71
2022/10/10 04:22:15;;;;;;;5.93;4.30;;;12.40;99.90;;;;;;5097269;28;20182;-72
2022/10/10 04:24:41;;;;;;;13.57;3.97;;;12.40;99.90;;;;;;5115231;28;20696;-72
2022/10/10 04:27:07;;;;;;;9.23;4.30;;;12.40;99.90;;;;;;5097738;28;20182;-70
2022/10/10 04:29:32;;;;;;;6.13;4.07;;;12.40;99.90;;;;;;5096885;28;20234;-73
2022/10/10 04:31:58;;;;;;;8.43;4.57;;;12.30;99.90;;;;;;5115516;28;20178;-71
2022/10/10 04:34:24;;;;;;;8.00;3.87;;;12.30;99.90;;;;;;5097429;28;20175;-71
2022/10/10 04:36:50;;;;;;;8.07;4.40;;;12.30;99.90;;;;;;5115388;28;20186;-73
2022/10/10 04:39:16;;;;;;;15.50;4.33;;;12.30;99.90;;;;;;5115258;28;20175;-73
2022/10/10 04:41:41;;;;;;;11.53;5.10;;;12.30;99.90;;;;;;5114939;28;20159;-73
2022/10/10 04:44:07;;;;;;;6.00;4.40;;;12.30;99.90;;;;;;5115120;28;20515;-73
2022/10/10 04:46:32;;;;;;;7.27;4.30;;;12.30;99.90;;;;;;5114577;28;20254;-71
2022/10/10 04:48:58;;;;;;;6.97;4.37;;;12.30;99.90;;;;;;5115198;28;20607;-71
2022/10/10 04:51:24;;;;;;;7.43;4.47;;;12.20;99.90;;;;;;5114607;28;20195;-72
2022/10/10 04:53:49;;;;;;;6.77;4.37;;;12.20;99.90;;;;;;5114469;28;20168;-71
2022/10/10 04:56:15;;;;;;;7.40;4.40;;;12.20;99.90;;;;;;5114716;28;20174;-72
2022/10/10 04:58:40;;;;;;;9.07;4.80;;;12.20;99.90;;;;;;5114421;28;20639;-73
2022/10/10 05:01:06;;;;;;;7.83;4.03;;;12.20;99.90;;;;;;5114635;28;20211;-73
2022/10/10 05:03:32;;;;;;;10.07;4.90;;;12.20;99.90;;;;;;5114782;28;20236;-73
2022/10/10 05:05:57;;;;;;;9.93;4.60;;;12.30;99.90;;;;;;5114418;28;20172;-73
2022/10/10 05:08:23;;;;;;;8.30;4.50;;;12.30;99.90;;;;;;5114237;28;20661;-71
2022/10/10 05:10:52;;;;;;;8.03;4.40;;;12.30;99.90;;;;;;5114435;28;20175;-72
2022/10/10 05:13:18;;;;;;;8.67;4.30;;;12.30;99.90;;;;;;5114404;28;20159;-72
2022/10/10 05:15:43;;;;;;;10.67;4.67;;;12.30;99.90;;;;;;5114439;28;20178;-72
2022/10/10 05:18:09;;;;;;;8.87;4.47;;;12.30;99.90;;;;;;5113410;28;20209;-73
2022/10/10 05:20:35;;;;;;;5.90;4.27;;;12.30;99.90;;;;;;5113635;28;20179;-72
2022/10/10 05:23:02;;;;;;;9.57;4.40;;;12.30;99.90;;;;;;5095827;28;20175;-72
2022/10/10 05:25:27;;;;;;;10.17;4.27;;;12.30;99.90;;;;;;5113811;28;20645;-72
2022/10/10 05:27:53;;;;;;;5.67;4.73;;;12.30;99.90;;;;;;5113571;28;20172;-73
2022/10/10 05:30:19;;;;;;;7.20;4.17;;;12.40;99.90;;;;;;5113332;28;20647;-72
2022/10/10 05:32:44;;;;;;;14.77;4.87;;;12.40;99.90;;;;;;5113663;28;20167;-72
2022/10/10 05:35:10;;;;;;;8.20;4.87;;;12.30;99.90;;;;;;5113664;28;20182;-72
2022/10/10 05:37:36;;;;;;;11.07;4.70;;;12.30;99.90;;;;;;5113481;28;20565;-72
2022/10/10 05:40:02;;;;;;;7.00;4.57;;;12.30;99.90;;;;;;5112619;28;20178;-73
2022/10/10 05:42:28;;;;;;;11.97;4.37;;;12.40;99.90;;;;;;5111774;28;20253;-73
2022/10/10 05:44:53;;;;;;;17.63;4.63;;;12.30;99.90;;;;;;5113995;28;20265;-72
2022/10/10 05:47:19;;;;;;;7.07;4.23;;;12.30;99.90;;;;;;5113808;28;20179;-74
2022/10/10 05:49:45;;;;;;;6.83;4.60;;;12.40;99.90;;;;;;5112948;28;20207;-72
2022/10/10 05:52:10;;;;;;;8.10;5.23;;;12.40;99.90;;;;;;5113382;28;20171;-74
2022/10/10 05:54:36;;;;;;;13.93;4.40;;;12.40;99.90;;;;;;5112822;28;20182;-72
2022/10/10 05:57:02;;;;;;;6.90;4.20;;;12.50;99.90;;;;;;5094423;28;20171;-72
2022/10/10 05:59:28;;;;;;;12.87;5.17;;;12.50;99.90;;;;;;5112421;28;20244;-73
2022/10/10 06:01:54;;;;;;;10.47;4.90;;;12.50;99.90;;;;;;5113415;28;20195;-73
2022/10/10 06:04:21;;;;;;;10.10;4.60;;;12.50;99.90;;;;;;5111708;28;20553;-73
2022/10/10 06:06:46;;;;;;;12.53;4.90;;;12.50;99.90;;;;;;5093791;28;20507;-71
2022/10/10 06:09:12;;;;;;;12.73;4.63;;;12.50;99.90;;;;;;5112867;28;20211;-73
2022/10/10 06:11:38;;;;;;;9.07;4.37;;;12.60;99.90;;;;;;5112396;28;20168;-73
2022/10/10 06:14:03;;;;;;;8.93;4.83;;;12.60;99.90;;;;;;5113340;28;20175;-73
2022/10/10 06:16:29;;;;;;;5.70;4.80;;;12.60;99.90;;;;;;5112873;28;20175;-73
2022/10/10 06:18:56;;;;;;;9.13;5.90;;;12.70;99.90;;;;;;5112508;28;20175;-73
2022/10/10 06:21:22;;;;;;;10.97;5.37;;;12.70;99.90;;;;;;5112940;28;20238;-73
2022/10/10 06:23:48;;;;;;;12.57;4.73;;;12.70;99.90;;;;;;5112127;28;20507;-74
2022/10/10 06:26:14;;;;;;;9.10;5.30;;;12.80;99.90;;;;;;5112354;28;20267;-76
2022/10/10 06:28:39;;;;;;;10.70;5.30;;;12.90;99.90;;;;;;5112904;28;20691;-73
2022/10/10 06:31:07;;;;;;;11.43;5.20;;;12.90;99.90;;;;;;5112394;28;20775;-73
2022/10/10 06:33:33;;;;;;;16.33;6.07;;;13.00;99.90;;;;;;5112058;28;20178;-74
2022/10/10 06:36:04;;;;;;;10.20;4.63;;;13.10;99.90;;;;;;5112119;28;20698;-74
2022/10/10 06:38:30;;;;;;;10.50;5.30;;;13.20;99.90;;;;;;5094883;28;20171;-74
2022/10/10 06:41:00;;;;;;;15.30;5.70;;;13.30;99.90;;;;;;5111696;28;20171;-72
2022/10/10 06:43:26;;;;;;;14.33;5.50;;;13.40;99.90;;;;;;5093936;28;20174;-74
2022/10/10 06:45:52;;;;;;;16.43;4.63;;;13.50;99.90;;;;;;5094989;28;20183;-75
2022/10/10 06:48:17;;;;;;;11.63;5.23;;;13.50;99.90;;;;;;5106874;28;20633;-73
2022/10/10 06:50:53;;;;;;;12.40;5.40;;;13.70;99.90;;;;;;5131932;28;20230;-74
2022/10/10 06:53:19;;;;;;;12.37;5.63;;;14.00;99.90;;;;;;5131856;28;20337;-76
2022/10/10 06:55:46;;;;;;;12.00;5.23;;;14.70;99.90;;;;;;5114340;28;20277;-76
2022/10/10 06:58:13;;;;;;;14.93;5.30;;;15.80;99.90;;;;;;5114404;28;20162;-77
2022/10/10 07:00:39;;;;;;;13.57;4.97;;;17.10;99.90;;;;;;5132438;28;20170;-76
2022/10/10 07:03:05;;;;;;;15.15;4.88;;;18.50;99.90;;;;;;5132373;28;20171;-79
2022/10/10 07:05:31;;;;;;;13.32;5.18;;;19.80;99.90;;;;;;5132539;28;20257;-77
2022/10/10 07:07:56;;;;;;;7.18;4.40;;;20.30;99.90;;;;;;5131847;28;20180;-77
2022/10/10 07:10:22;;;;;;;9.00;4.75;;;20.90;98.40;;;;;;5130119;27;20592;-77
2022/10/10 07:12:48;;;;;;;10.30;4.53;;;21.30;97.00;;;;;;5130274;27;20182;-76
2022/10/10 07:15:14;;;;;;;8.43;4.57;;;21.20;96.80;;;;;;5136402;27;20206;-76
2022/10/10 07:17:39;;;;;;;11.60;4.68;;;20.90;96.70;;;;;;5135779;27;20187;-75
2022/10/10 07:20:05;;;;;;;13.63;5.45;;;20.20;98.10;;;;;;5136240;27;20171;-78
2022/10/10 07:22:31;;;;;;;12.77;5.00;;;20.10;98.90;;;;;;5130074;27;20278;-78
2022/10/10 07:24:57;;;;;;;8.75;5.10;;;19.90;98.90;;;;;;5125813;27;20185;-77
2022/10/10 07:27:23;;;;;;;11.48;5.93;;;20.30;99.00;;;;;;5111859;28;20175;-77
2022/10/10 07:29:48;;;;;;;9.88;4.72;;;20.40;98.20;;;;;;5134652;27;20241;-78
2022/10/10 07:32:14;;;;;;;9.95;5.30;;;19.90;99.00;;;;;;5135373;27;20166;-78
2022/10/10 07:34:39;;;;;;;12.18;5.50;;;20.00;99.20;;;;;;5134696;27;20175;-78
2022/10/10 07:37:05;;;;;;;11.02;5.05;;;20.30;98.50;;;;;;5134633;27;20312;-77
2022/10/10 07:39:31;;;;;;;10.80;4.95;;;20.50;98.00;;;;;;5135266;27;20496;-76
2022/10/10 07:41:56;;;;;;;13.60;5.78;;;20.90;97.40;;;;;;5135498;27;20178;-78
2022/10/10 07:44:25;;;;;;;13.20;5.50;;;21.10;96.80;;;;;;5135216;27;20658;-77
2022/10/10 07:46:52;;;;;;;12.68;5.28;;;22.10;95.10;;;;;;5135333;27;20630;-78
2022/10/10 07:49:17;;;;;;;9.70;5.05;;;21.40;95.40;;;;;;5135569;27;20283;-75
2022/10/10 07:51:43;;;;;;;13.88;4.97;;;21.30;96.10;;;;;;5135188;27;20166;-77
2022/10/10 07:54:09;;;;;;;11.45;5.70;;;21.90;95.00;;;;;;5135381;27;20536;-77
2022/10/10 07:56:34;;;;;;;13.65;5.50;;;22.40;93.60;;;;;;5135835;27;20162;-77
2022/10/10 07:59:00;;;;;;;16.80;5.72;;;22.50;93.40;;;;;;5116987;27;20182;-78
2022/10/10 08:01:26;;;;;;;10.05;5.03;;;22.80;92.60;;;;;;5135377;27;20162;-80
2022/10/10 08:03:51;;;;;;;8.85;5.43;;;23.50;91.50;;;;;;5134764;27;20178;-77
2022/10/10 08:06:17;;;;;;;18.08;5.90;;;24.30;88.20;;;;;;5134680;27;20246;-77
2022/10/10 08:08:46;;;;;;;9.05;4.50;;;24.70;85.80;;;;;;5135505;27;20175;-78
2022/10/10 08:11:12;;;;;;;10.27;4.85;;;25.30;1.00;;;;;;5134448;27;20274;-79
2022/10/10 08:13:41;;;;;;;11.63;5.25;;;25.30;99.90;;;;;;5135234;27;20652;-79
2022/10/10 08:16:07;;;;;;;11.57;7.18;;;25.30;99.90;;;;;;5116894;27;20260;-81
2022/10/10 08:18:32;;;;;;;8.68;5.22;;;25.20;99.90;;;;;;5135284;27;20174;-81
2022/10/10 08:21:09;;;;;;;13.30;5.88;;;24.20;1.00;;;;;;5133971;27;20534;-78
2022/10/10 08:23:35;;;;;;;7.78;5.28;;;24.30;1.00;;;;;;5134819;27;20170;-79
2022/10/10 08:26:03;;;;;;;14.05;5.93;;;24.40;1.00;;;;;;5131527;27;20202;-82
2022/10/10 08:28:29;;;;;;;9.13;4.72;;;24.50;1.00;;;;;;5116628;27;20741;-77
2022/10/10 08:30:55;;;;;;;8.45;4.93;;;24.30;1.00;;;;;;5126695;27;20278;-80
2022/10/10 08:33:25;;;;;;;9.88;4.80;;;23.80;1.00;;;;;;5134224;27;20264;-78
2022/10/10 08:35:51;;;;;;;7.25;4.65;;;24.30;1.00;;;;;;5133252;27;20197;-79
2022/10/10 08:38:16;;;;;;;10.43;5.60;;;24.70;1.00;;;;;;5134167;27;20830;-79
2022/10/10 08:40:46;;;;;;;12.45;5.50;;;24.30;1.00;;;;;;5116217;27;20170;-81
2022/10/10 08:43:22;;;;;;;9.07;5.57;;;24.00;1.00;;;;;;5133033;27;20162;-79
2022/10/10 08:45:49;;;;;;;9.57;5.35;;;24.10;1.00;;;;;;5134091;27;20159;-79
2022/10/10 08:48:20;;;;;;;11.45;5.90;;;24.30;1.00;;;;;;5134640;27;20163;-79
2022/10/10 08:50:55;;;;;;;19.33;6.03;;;24.60;1.00;;;;;;5133840;27;20275;-79
2022/10/10 08:53:24;;;;;;;14.32;5.95;;;24.40;1.00;;;;;;5134157;27;20633;-80
2022/10/10 08:55:52;;;;;;;12.02;5.60;;;24.30;1.00;;;;;;5114940;27;20194;-81
2022/10/10 08:58:23;;;;;;;12.80;5.45;;;23.90;1.00;;;;;;5112742;28;20219;-82
2022/10/10 09:01:01;;;;;;;13.77;5.07;;;22.80;57.90;;;;;;5129235;27;20167;-83
2022/10/10 09:03:35;;;;;;;11.55;4.97;;;22.50;93.30;;;;;;5133480;27;20158;-83
2022/10/10 09:06:13;;;;;;;10.50;5.05;;;23.20;91.90;;;;;;5133602;27;20176;-83
2022/10/10 09:09:11;;;;;;;17.38;5.38;;;23.90;90.80;;;;;;5135144;27;20645;-86
2022/10/10 09:11:55;;;;;;;13.93;5.22;;;24.10;89.30;;;;;;5099758;27;20198;-85
2022/10/10 09:14:23;;;;;;;11.10;5.10;;;23.60;90.20;;;;;;5134890;27;20182;-78
2022/10/10 09:17:18;;;;;;;9.90;4.68;;;23.80;90.80;;;;;;5134447;27;20245;-80
2022/10/10 09:20:02;;;;;;;11.25;4.68;;;23.40;90.80;;;;;;5134239;27;20215;-82
2022/10/10 09:22:34;;;;;;;11.93;4.82;;;23.20;91.90;;;;;;5113583;28;20698;-80
2022/10/10 09:25:17;;;;;;;12.75;4.60;;;23.30;92.00;;;;;;5113719;28;20163;-83
2022/10/10 09:27:53;;;;;;;9.48;4.90;;;22.80;92.30;;;;;;5122724;27;20253;-82
2022/10/10 09:30:20;;;;;;;14.48;5.00;;;22.30;93.80;;;;;;5126335;27;20245;-84
2022/10/10 09:32:55;;;;;;;15.15;4.95;;;22.40;95.10;;;;;;5133271;27;20156;-78
2022/10/10 09:35:29;;;;;;;16.42;4.68;;;23.30;93.70;;;;;;5121597;27;20194;-83
2022/10/10 09:38:22;;;;;;;8.70;4.78;;;24.30;91.00;;;;;;5121576;27;20181;-82
2022/10/10 09:40:52;;;;;;;13.25;4.45;;;25.40;88.80;;;;;;5132477;27;20166;-81
2022/10/10 09:43:20;;;;;;;6.88;4.20;;;26.20;99.90;;;;;;5097842;28;20182;-78
2022/10/10 09:45:57;;;;;;;14.63;4.53;;;26.90;99.90;;;;;;5126600;27;20179;-83
2022/10/10 09:48:35;;;;;;;9.52;4.57;;;26.50;99.90;;;;;;5113486;28;20296;-78
2022/10/10 09:51:03;;;;;;;9.93;4.50;;;27.60;99.90;;;;;;5122109;27;20205;-77
2022/10/10 09:53:29;;;;;;;10.00;4.78;;;27.60;99.90;;;;;;5129349;27;20173;-82
2022/10/10 09:55:55;;;;;;;9.80;4.38;;;27.40;99.90;;;;;;5133106;27;20174;-82
2022/10/10 09:58:42;;;;;;;7.05;3.80;;;26.90;99.90;;;;;;5131151;27;20253;-80
2022/10/10 10:01:21;;;;;;;7.90;3.90;;;27.50;99.90;;;;;;5131874;27;20170;-77
2022/10/10 10:04:19;;;;;;;7.97;3.72;;;28.10;99.90;;;;;;5124668;27;20254;-83
2022/10/10 10:06:48;;;;;;;7.03;3.40;;;27.50;99.90;;;;;;5023713;28;20193;-81
2022/10/10 10:09:19;;;;;;;6.90;3.88;;;27.20;99.90;;;;;;5034847;28;20245;-83
2022/10/10 10:11:48;;;;;;;6.85;3.80;;;28.40;99.90;;;;;;5011129;28;20222;-83
2022/10/10 10:14:24;;;;;;;10.07;3.90;;;29.20;99.90;;;;;;5017595;28;20224;-81
2022/10/10 10:16:51;;;;;;;12.95;3.95;;;29.60;99.90;;;;;;5025395;28;20689;-79
2022/10/10 10:19:36;;;;;;;11.93;4.03;;;29.70;99.90;;;;;;5024851;28;20335;-83
2022/10/10 10:22:03;;;;;;;7.60;3.20;;;28.60;99.90;;;;;;5019231;28;20186;-81
2022/10/10 10:24:35;;;;;;;9.70;3.72;;;26.80;99.90;;;;;;5014783;28;20197;-83
2022/10/10 10:27:16;;;;;;;11.77;5.70;;;26.70;99.90;;;;;;5029155;28;20178;-80
2022/10/10 10:29:50;;;;;;;11.95;4.20;;;27.60;99.90;;;;;;5029301;28;20221;-82
2022/10/10 10:32:27;;;;;;;12.30;3.72;;;28.00;99.90;;;;;;5013239;28;20226;-78
2022/10/10 10:35:19;;;;;;;14.60;4.00;;;28.30;99.90;;;;;;5029687;28;20197;-82
2022/10/10 10:38:00;;;;;;;12.75;4.35;;;28.50;99.90;;;;;;5029560;28;20207;-82
2022/10/10 10:40:36;;;;;;;10.23;3.80;;;28.90;99.90;;;;;;5034710;28;20169;-80
2022/10/10 10:43:26;;;;;;;10.70;3.72;;;28.00;99.90;;;;;;5070422;28;20184;-81
2022/10/10 10:46:20;;;;;;;9.57;3.90;;;28.60;99.90;;;;;;5091164;28;20175;-81
2022/10/10 10:48:56;;;;;;;12.35;3.95;;;28.60;99.90;;;;;;5091752;28;20168;-79
2022/10/10 10:51:21;;;;;;;9.85;3.75;;;28.50;99.90;;;;;;5107558;28;20183;-79
2022/10/10 10:54:08;;;;;;;7.10;3.53;;;28.40;99.90;;;;;;5111900;28;20186;-79
2022/10/10 10:56:44;;;;;;;10.70;4.10;;;28.10;99.90;;;;;;5093782;28;20175;-81
2022/10/10 10:59:19;;;;;;;12.15;3.78;;;27.60;99.90;;;;;;5108046;28;20179;-83
2022/10/10 11:01:59;;;;;;;10.60;3.80;;;27.40;99.90;;;;;;5108856;28;20174;-81
2022/10/10 11:04:57;;;;;;;11.95;4.53;;;26.80;99.90;;;;;;5100644;28;20540;-87
2022/10/10 11:07:25;;;;;;;12.95;4.38;;;26.70;99.90;;;;;;5106695;28;20292;-82
2022/10/10 11:10:11;;;;;;;14.63;4.15;;;26.90;99.90;;;;;;5100270;28;20748;-80
2022/10/10 11:12:49;;;;;;;12.70;3.72;;;27.40;99.90;;;;;;5096251;28;20181;-80
2022/10/10 11:15:40;;;;;;;15.43;4.30;;;27.30;99.90;;;;;;5110287;28;20179;-81
2022/10/10 11:18:10;;;;;;;13.18;3.53;;;27.20;99.90;;;;;;5099931;28;20286;-84
2022/10/10 11:20:42;;;;;;;8.80;4.13;;;27.10;99.90;;;;;;5107773;28;20175;-86
2022/10/10 11:23:18;;;;;;;10.38;3.80;;;26.00;99.90;;;;;;5112213;28;20254;-86
2022/10/10 11:25:57;;;;;;;13.95;4.20;;;25.80;99.90;;;;;;5108874;28;20202;-83
2022/10/10 11:28:26;;;;;;;11.23;3.72;;;25.50;99.90;;;;;;5108215;28;20202;-84
2022/10/10 11:30:58;;;;;;;12.80;4.32;;;25.40;99.90;;;;;;5123345;28;20253;-79
2022/10/10 11:33:29;;;;;;;9.25;3.53;;;25.00;1.00;;;;;;5126248;28;20177;-83
2022/10/10 11:36:03;;;;;;;9.70;3.70;;;24.20;1.00;;;;;;5129294;28;20281;-80
2022/10/10 11:39:04;;;;;;;10.45;3.80;;;23.60;99.90;;;;;;5131176;28;20174;-80
2022/10/10 11:41:48;;;;;;;11.18;4.03;;;23.10;1.00;;;;;;5025440;28;20653;-76
2022/10/10 11:44:23;;;;;;;9.63;4.15;;;23.30;99.90;;;;;;5029824;28;20182;-80
2022/10/10 11:47:00;;;;;;;11.70;3.90;;;23.20;37.00;;;;;;5022576;28;20190;-84
2022/10/10 11:49:44;;;;;;;8.57;3.35;;;22.90;1.00;;;;;;5018508;28;20213;-77
2022/10/10 11:52:23;;;;;;;12.27;4.03;;;22.20;93.20;;;;;;5024764;28;20268;-81
2022/10/10 11:55:00;;;;;;;10.93;4.00;;;21.90;94.10;;;;;;5010536;28;20187;-80
2022/10/10 11:57:34;;;;;;;11.07;4.45;;;21.60;95.40;;;;;;5026516;28;20294;-86
2022/10/10 12:00:12;;;;;;;12.70;4.45;;;20.90;97.70;;;;;;5030755;28;20184;-82
2022/10/10 12:02:39;;;;;;;10.02;4.38;;;20.70;98.90;;;;;;5029137;28;20228;-84
2022/10/10 12:05:16;;;;;;;11.90;4.60;;;20.70;99.40;;;;;;5033073;28;20182;-85
2022/10/10 12:07:55;;;;;;;10.40;5.40;;;20.50;99.90;;;;;;5031455;28;20196;-85
2022/10/10 12:10:26;;;;;;;9.32;4.85;;;20.50;99.90;;;;;;5027853;28;20226;-82
2022/10/10 12:12:57;;;;;;;15.60;4.90;;;20.40;99.90;;;;;;5029620;28;20280;-81
2022/10/10 12:15:33;;;;;;;10.15;5.35;;;20.60;99.90;;;;;;5032142;28;20201;-83
2022/10/10 12:17:59;;;;;;;10.65;5.57;;;20.80;99.90;;;;;;5113499;27;20650;-90
2022/10/10 12:20:25;;;;;;;16.40;5.63;;;20.60;99.90;;;;;;5134750;27;20189;-81
2022/10/10 12:23:09;;;;;;;13.20;6.25;;;20.10;99.90;;;;;;5123817;27;20179;-81
2022/10/10 12:25:42;;;;;;;12.68;4.97;;;20.20;99.90;;;;;;5130603;27;20170;-81
2022/10/10 12:28:13;;;;;;;12.70;5.32;;;20.30;99.90;;;;;;5129472;27;20638;-82
2022/10/10 12:30:51;;;;;;;9.90;5.03;;;20.20;99.90;;;;;;5120513;27;20305;-80
2022/10/10 12:33:21;;;;;;;14.10;5.82;;;19.70;99.90;;;;;;5114725;28;20182;-82
2022/10/10 12:35:47;;;;;;;11.13;5.55;;;19.90;99.90;;;;;;5108359;28;20258;-82
2022/10/10 12:38:17;;;;;;;10.77;5.10;;;20.10;99.90;;;;;;5106291;28;20625;-81
2022/10/10 12:41:12;;;;;;;11.20;5.07;;;20.30;99.90;;;;;;5102013;28;20802;-82
2022/10/10 12:43:42;;;;;;;11.32;5.63;;;20.40;99.90;;;;;;4992124;28;20183;-87
2022/10/10 12:46:08;;;;;;;13.57;6.35;;;20.50;99.90;;;;;;4992270;28;20183;-83
2022/10/10 12:48:35;;;;;;;12.43;6.22;;;20.70;99.90;;;;;;4988780;28;20260;-84
2022/10/10 12:51:01;;;;;;;14.02;6.28;;;20.90;99.90;;;;;;4990435;28;20223;-78
2022/10/10 12:53:30;;;;;;;14.80;8.02;;;20.80;99.90;;;;;;4989402;28;20187;-84
2022/10/10 12:55:59;;;;;;;12.77;5.88;;;20.80;99.90;;;;;;4991712;28;20247;-82
2022/10/10 12:58:36;;;;;;;16.65;5.95;;;21.00;99.90;;;;;;4985875;28;20179;-78